createdAt,value
2018-01-27T00:02:03.664Z,16.23
2018-01-27T00:04:31.945Z,16.73
2018-01-27T00:06:59.491Z,16.90
2018-01-27T00:09:27.008Z,17.50
2018-01-27T00:11:55.335Z,17.17
2018-01-27T00:14:22.848Z,16.50
2018-01-27T00:16:50.398Z,16.53
2018-01-27T00:19:17.903Z,14.83
2018-01-27T00:21:46.224Z,15.97
2018-01-27T00:24:13.736Z,14.80
2018-01-27T00:26:41.292Z,15.70
2018-01-27T00:29:08.915Z,17.30
2018-01-27T00:31:37.195Z,17.70
2018-01-27T00:34:05.511Z,16.40
2018-01-27T00:36:33.032Z,16.13
2018-01-27T00:39:00.577Z,17.30
2018-01-27T00:41:28.104Z,15.20
2018-01-27T00:43:56.427Z,17.10
2018-01-27T00:46:23.987Z,17.77
2018-01-27T00:48:51.547Z,16.80
2018-01-27T00:51:19.832Z,17.77
2018-01-27T00:53:48.115Z,16.97
2018-01-27T00:56:16.437Z,18.00
2018-01-27T00:58:43.948Z,19.20
2018-01-27T01:01:11.509Z,18.27
2018-01-27T01:03:39.017Z,16.93
2018-01-27T01:06:06.570Z,16.37
2018-01-27T01:08:34.083Z,15.50
2018-01-27T01:11:02.391Z,16.20
2018-01-27T01:13:29.915Z,15.10
2018-01-27T01:15:57.484Z,18.50
2018-01-27T01:18:25.004Z,18.57
2018-01-27T01:20:52.544Z,18.00
2018-01-27T01:23:20.816Z,18.60
2018-01-27T01:25:48.380Z,20.00
2018-01-27T01:28:15.883Z,22.40
2018-01-27T01:30:44.155Z,19.93
2018-01-27T01:33:11.700Z,20.13
2018-01-27T01:35:39.207Z,20.60
2018-01-27T01:38:06.770Z,19.17
2018-01-27T01:40:34.280Z,19.03
2018-01-27T01:43:07.697Z,16.57
2018-01-27T01:45:35.215Z,16.30
2018-01-27T01:48:02.770Z,16.10
2018-01-27T01:50:30.304Z,16.07
2018-01-27T01:52:57.817Z,14.27
2018-01-27T01:55:25.367Z,15.40
2018-01-27T01:57:52.888Z,15.10
2018-01-27T02:00:20.448Z,14.33
2018-01-27T02:02:47.971Z,13.33
2018-01-27T02:05:15.531Z,15.10
2018-01-27T02:07:43.046Z,13.07
2018-01-27T02:10:10.595Z,14.00
2018-01-27T02:12:38.111Z,14.00
2018-01-27T02:15:05.659Z,12.67
2018-01-27T02:17:33.174Z,13.33
2018-01-27T02:20:01.461Z,13.90
2018-01-27T02:22:29.774Z,14.90
2018-01-27T02:24:57.287Z,14.27
2018-01-27T02:27:24.842Z,12.83
2018-01-27T02:29:52.350Z,14.77
2018-01-27T02:32:19.910Z,15.93
2018-01-27T02:34:47.419Z,14.57
2018-01-27T02:37:14.967Z,14.87
2018-01-27T02:39:42.483Z,12.90
2018-01-27T02:42:09.990Z,13.40
2018-01-27T02:44:37.535Z,13.73
2018-01-27T02:47:05.042Z,14.87
2018-01-27T02:49:32.586Z,14.70
2018-01-27T02:52:05.704Z,13.47
2018-01-27T02:54:33.265Z,14.60
2018-01-27T02:57:00.825Z,14.67
2018-01-27T02:59:28.371Z,13.73
2018-01-27T03:01:56.652Z,14.57
2018-01-27T03:04:24.955Z,13.03
2018-01-27T03:06:52.471Z,12.73
2018-01-27T03:09:20.013Z,13.20
2018-01-27T03:11:47.528Z,14.37
2018-01-27T03:14:15.076Z,13.83
2018-01-27T03:16:42.608Z,14.43
2018-01-27T03:19:10.913Z,15.00
2018-01-27T03:21:38.427Z,13.90
2018-01-27T03:24:05.985Z,13.77
2018-01-27T03:26:33.495Z,14.37
2018-01-27T03:29:01.043Z,13.37
2018-01-27T03:31:28.552Z,14.03
2018-01-27T03:33:56.101Z,15.30
2018-01-27T03:36:23.624Z,13.77
2018-01-27T03:38:51.190Z,16.87
2018-01-27T03:41:18.705Z,15.57
2018-01-27T03:43:46.260Z,15.20
2018-01-27T03:46:13.777Z,12.80
2018-01-27T03:48:41.295Z,14.83
2018-01-27T03:51:08.846Z,13.87
2018-01-27T03:53:36.367Z,14.87
2018-01-27T03:56:03.926Z,13.90
2018-01-27T03:58:31.436Z,13.40
2018-01-27T04:00:59.751Z,14.23
2018-01-27T04:03:27.283Z,15.17
2018-01-27T04:05:54.832Z,13.13
2018-01-27T04:08:22.380Z,13.00
2018-01-27T04:10:49.888Z,13.77
2018-01-27T04:13:17.444Z,13.33
2018-01-27T04:15:44.955Z,13.13
2018-01-27T04:18:12.513Z,12.70
2018-01-27T04:20:40.035Z,14.77
2018-01-27T04:23:07.560Z,13.90
2018-01-27T04:25:35.103Z,14.77
2018-01-27T04:28:02.651Z,14.93
2018-01-27T04:30:30.168Z,16.10
2018-01-27T04:32:57.716Z,16.37
2018-01-27T04:35:25.232Z,16.47
2018-01-27T04:37:53.536Z,16.97
2018-01-27T04:40:21.817Z,16.50
2018-01-27T04:42:50.131Z,16.10
2018-01-27T04:45:17.680Z,16.27
2018-01-27T04:47:45.955Z,16.90
2018-01-27T04:50:13.504Z,17.13
2018-01-27T04:52:41.049Z,18.17
2018-01-27T04:55:08.592Z,16.13
2018-01-27T04:57:36.127Z,15.93
2018-01-27T05:00:03.866Z,16.07
2018-01-27T05:02:31.387Z,18.50
2018-01-27T05:04:58.935Z,17.43
2018-01-27T05:07:26.447Z,16.80
2018-01-27T05:09:54.763Z,17.47
2018-01-27T05:12:22.275Z,17.50
2018-01-27T05:14:49.827Z,17.10
2018-01-27T05:17:17.353Z,17.17
2018-01-27T05:19:44.892Z,15.40
2018-01-27T05:22:12.416Z,17.93
2018-01-27T05:24:39.972Z,19.20
2018-01-27T05:27:08.252Z,20.30
2018-01-27T05:29:35.804Z,18.57
2018-01-27T05:32:03.360Z,19.30
2018-01-27T05:34:30.909Z,19.43
2018-01-27T05:36:58.419Z,17.27
2018-01-27T05:39:25.968Z,18.90
2018-01-27T05:41:53.488Z,16.43
2018-01-27T05:44:21.807Z,19.17
2018-01-27T05:46:49.319Z,16.93
2018-01-27T05:49:16.867Z,17.20
2018-01-27T05:51:44.398Z,17.80
2018-01-27T05:54:12.705Z,17.73
2018-01-27T05:56:40.224Z,18.70
2018-01-27T05:59:07.794Z,15.50
2018-01-27T06:01:35.316Z,16.70
2018-01-27T06:04:03.860Z,16.80
2018-01-27T06:06:31.381Z,15.37
2018-01-27T06:08:58.927Z,16.90
2018-01-27T06:11:26.443Z,16.50
2018-01-27T06:13:53.996Z,14.87
2018-01-27T06:16:21.519Z,16.53
2018-01-27T06:18:49.065Z,17.00
2018-01-27T06:21:16.580Z,18.50
2018-01-27T06:23:44.152Z,19.03
2018-01-27T06:26:11.668Z,18.37
2018-01-27T06:28:39.223Z,17.67
2018-01-27T06:31:07.517Z,16.93
2018-01-27T06:33:35.831Z,17.30
2018-01-27T06:36:03.351Z,15.87
2018-01-27T06:38:30.921Z,17.77
2018-01-27T06:40:58.444Z,18.00
2018-01-27T06:43:25.997Z,17.13
2018-01-27T06:45:53.512Z,16.90
2018-01-27T06:48:21.060Z,18.73
2018-01-27T06:50:48.572Z,19.00
2018-01-27T06:53:16.161Z,17.63
2018-01-27T06:55:43.681Z,17.57
2018-01-27T06:58:11.199Z,16.83
2018-01-27T07:00:38.744Z,17.60
2018-01-27T07:03:06.255Z,18.90
2018-01-27T07:05:34.570Z,16.57
2018-01-27T07:08:02.097Z,17.47
2018-01-27T07:10:29.647Z,15.73
2018-01-27T07:12:57.166Z,17.77
2018-01-27T07:15:24.707Z,17.37
2018-01-27T07:17:52.220Z,15.53
2018-01-27T07:20:20.532Z,17.97
2018-01-27T07:22:48.068Z,17.30
2018-01-27T07:25:16.383Z,15.80
2018-01-27T07:27:43.904Z,16.30
2018-01-27T07:30:11.448Z,15.60
2018-01-27T07:32:38.960Z,15.93
2018-01-27T07:35:06.516Z,17.30
2018-01-27T07:37:34.039Z,17.23
2018-01-27T07:40:01.591Z,16.07
2018-01-27T07:42:29.871Z,16.07
2018-01-27T07:44:57.417Z,18.03
2018-01-27T07:47:24.931Z,17.17
2018-01-27T07:49:53.246Z,17.13
2018-01-27T07:52:20.785Z,17.83
2018-01-27T07:54:49.093Z,16.30
2018-01-27T07:57:16.619Z,16.07
2018-01-27T07:59:44.182Z,15.80
2018-01-27T08:02:11.695Z,15.80
2018-01-27T08:04:40.014Z,16.57
2018-01-27T08:07:07.528Z,16.73
2018-01-27T08:09:35.082Z,16.40
2018-01-27T08:12:02.592Z,16.10
2018-01-27T08:14:30.140Z,16.00
2018-01-27T08:16:57.667Z,15.70
2018-01-27T08:19:25.216Z,15.87
2018-01-27T08:21:53.740Z,15.90
2018-01-27T08:24:21.288Z,14.27
2018-01-27T08:26:49.575Z,16.93
2018-01-27T08:29:17.901Z,16.07
2018-01-27T08:31:45.424Z,15.93
2018-01-27T08:34:12.980Z,16.50
2018-01-27T08:36:40.502Z,16.10
2018-01-27T08:39:08.047Z,16.67
2018-01-27T08:41:36.331Z,15.90
2018-01-27T08:44:03.884Z,14.60
2018-01-27T08:46:31.422Z,16.60
2018-01-27T08:48:59.007Z,15.70
2018-01-27T08:51:26.528Z,17.03
2018-01-27T08:53:54.843Z,16.10
2018-01-27T08:56:22.371Z,15.33
2018-01-27T08:58:49.925Z,16.30
2018-01-27T09:01:17.445Z,15.83
2018-01-27T09:03:45.753Z,14.83
2018-01-27T09:06:13.268Z,15.47
2018-01-27T09:08:40.821Z,17.63
2018-01-27T09:11:08.337Z,15.00
2018-01-27T09:13:35.881Z,15.90
2018-01-27T09:16:03.396Z,14.97
2018-01-27T09:18:31.721Z,13.90
2018-01-27T09:20:59.244Z,13.50
2018-01-27T09:23:27.556Z,13.23
2018-01-27T09:25:55.071Z,16.00
2018-01-27T09:28:22.620Z,15.03
2018-01-27T09:30:50.132Z,14.20
2018-01-27T09:33:17.682Z,14.30
2018-01-27T09:35:45.195Z,14.87
2018-01-27T09:38:13.521Z,13.60
2018-01-27T09:40:41.032Z,13.97
2018-01-27T09:43:08.591Z,13.90
2018-01-27T09:45:36.120Z,13.60
2018-01-27T09:48:03.667Z,13.40
2018-01-27T09:50:31.956Z,13.50
2018-01-27T09:53:00.276Z,15.37
2018-01-27T09:55:27.796Z,14.70
2018-01-27T09:57:55.370Z,13.27
2018-01-27T10:00:22.895Z,14.40
2018-01-27T10:02:50.448Z,14.17
2018-01-27T10:05:18.735Z,13.20
2018-01-27T10:07:47.048Z,14.63
2018-01-27T10:10:14.571Z,13.60
2018-01-27T10:12:42.136Z,13.33
2018-01-27T10:15:09.670Z,13.47
2018-01-27T10:17:37.226Z,13.60
2018-01-27T10:20:04.790Z,13.13
2018-01-27T10:22:33.112Z,13.70
2018-01-27T10:25:00.680Z,14.00
2018-01-27T10:27:28.248Z,13.77
2018-01-27T10:29:55.770Z,13.37
2018-01-27T10:32:23.328Z,14.57
2018-01-27T10:34:50.852Z,13.17
2018-01-27T10:37:18.417Z,15.40
2018-01-27T10:39:46.723Z,15.80
2018-01-27T10:42:14.291Z,15.30
2018-01-27T10:44:41.814Z,14.77
2018-01-27T10:47:09.337Z,15.83
2018-01-27T10:49:36.888Z,15.47
2018-01-27T10:52:04.412Z,16.23
2018-01-27T10:54:31.971Z,16.23
2018-01-27T10:56:59.505Z,15.43
2018-01-27T10:59:27.819Z,16.50
2018-01-27T11:01:55.336Z,15.20
2018-01-27T11:04:22.884Z,15.93
2018-01-27T11:06:50.396Z,17.80
2018-01-27T11:09:18.715Z,16.83
2018-01-27T11:11:46.235Z,17.17
2018-01-27T11:14:13.793Z,18.13
2018-01-27T11:16:43.260Z,19.03
2018-01-27T11:19:11.577Z,17.47
2018-01-27T11:21:39.095Z,19.03
2018-01-27T11:24:06.656Z,17.67
2018-01-27T11:26:34.188Z,18.03
2018-01-27T11:29:01.748Z,18.60
2018-01-27T11:31:29.277Z,18.60
2018-01-27T11:33:56.833Z,18.53
2018-01-27T11:36:24.364Z,19.73
2018-01-27T11:38:51.911Z,18.57
2018-01-27T11:41:19.425Z,20.87
2018-01-27T11:43:46.980Z,19.23
2018-01-27T11:46:14.559Z,21.00
2018-01-27T11:48:42.087Z,21.80
2018-01-27T11:51:09.611Z,21.73
2018-01-27T11:53:37.163Z,20.60
2018-01-27T11:56:05.451Z,22.60
2018-01-27T11:58:33.007Z,21.40
2018-01-27T12:01:00.531Z,23.67
2018-01-27T12:03:28.084Z,22.20
2018-01-27T12:05:55.648Z,22.83
2018-01-27T12:08:23.192Z,24.43
2018-01-27T12:10:50.745Z,25.60
2018-01-27T12:13:18.287Z,24.37
2018-01-27T12:15:45.807Z,25.13
2018-01-27T12:18:13.363Z,27.37
2018-01-27T12:20:40.916Z,23.50
2018-01-27T12:23:08.504Z,25.50
2018-01-27T12:25:36.036Z,24.37
2018-01-27T12:28:03.605Z,22.93
2018-01-27T12:30:31.123Z,23.67
2018-01-27T12:32:58.683Z,22.80
2018-01-27T12:35:26.198Z,21.90
2018-01-27T12:37:53.743Z,22.73
2018-01-27T12:40:21.275Z,21.10
2018-01-27T12:42:48.853Z,21.00
2018-01-27T12:45:16.396Z,18.07
2018-01-27T12:47:43.988Z,20.83
2018-01-27T12:50:11.544Z,20.53
2018-01-27T12:52:39.088Z,21.87
2018-01-27T12:55:06.605Z,21.07
2018-01-27T12:57:34.159Z,20.97
2018-01-27T13:00:02.441Z,22.63
2018-01-27T13:02:30.001Z,20.30
2018-01-27T13:04:57.525Z,19.70
2018-01-27T13:07:25.869Z,21.20
2018-01-27T13:09:54.153Z,21.73
2018-01-27T13:12:21.715Z,22.07
2018-01-27T13:14:49.240Z,20.27
2018-01-27T13:17:16.755Z,21.40
2018-01-27T13:19:44.303Z,19.40
2018-01-27T13:22:11.823Z,18.40
2018-01-27T13:24:40.136Z,17.93
2018-01-27T13:27:07.670Z,18.90
2018-01-27T13:29:35.232Z,17.73
2018-01-27T13:32:02.749Z,17.77
2018-01-27T13:34:30.324Z,17.07
2018-01-27T13:36:57.836Z,17.00
2018-01-27T13:39:25.395Z,19.10
2018-01-27T13:41:52.920Z,18.10
2018-01-27T13:44:21.251Z,17.57
2018-01-27T13:46:48.764Z,19.23
2018-01-27T13:49:16.307Z,19.20
2018-01-27T13:51:43.844Z,19.03
2018-01-27T13:54:11.405Z,20.37
2018-01-27T13:56:38.928Z,18.93
2018-01-27T13:59:06.479Z,19.87
2018-01-27T14:01:34.004Z,18.50
2018-01-27T14:04:01.553Z,20.43
2018-01-27T14:06:29.076Z,21.37
2018-01-27T14:08:56.625Z,20.70
2018-01-27T14:11:24.902Z,18.90
2018-01-27T14:13:52.462Z,18.37
2018-01-27T14:16:19.976Z,22.40
2018-01-27T14:18:47.529Z,20.63
2018-01-27T14:21:15.820Z,21.23
2018-01-27T14:23:44.110Z,21.20
2018-01-27T14:26:12.420Z,19.90
2018-01-27T14:28:40.296Z,20.87
2018-01-27T14:31:08.758Z,20.40
2018-01-27T14:33:36.488Z,19.33
2018-01-27T14:36:04.189Z,19.20
2018-01-27T14:38:31.866Z,18.63
2018-01-27T14:40:59.662Z,17.30
2018-01-27T14:43:27.286Z,19.07
2018-01-27T14:45:54.924Z,19.20
2018-01-27T14:48:23.507Z,16.83
2018-01-27T14:50:51.128Z,19.30
2018-01-27T14:53:19.840Z,19.70
2018-01-27T14:55:47.514Z,19.17
2018-01-27T14:58:15.102Z,16.80
2018-01-27T15:00:43.309Z,16.40
2018-01-27T15:03:10.828Z,15.83
2018-01-27T15:05:39.140Z,16.90
2018-01-27T15:08:06.743Z,16.33
2018-01-27T15:10:34.256Z,15.80
2018-01-27T15:13:02.552Z,15.20
2018-01-27T15:15:30.926Z,14.90
2018-01-27T15:17:59.001Z,15.40
2018-01-27T15:20:33.301Z,14.67
2018-01-27T15:23:01.509Z,13.83
2018-01-27T15:25:29.065Z,14.57
2018-01-27T15:27:56.583Z,14.93
2018-01-27T15:30:24.148Z,15.00
2018-01-27T15:32:51.668Z,15.30
2018-01-27T15:35:19.219Z,13.93
2018-01-27T15:37:46.770Z,15.27
2018-01-27T15:40:14.319Z,15.27
2018-01-27T15:42:42.614Z,13.97
2018-01-27T15:45:10.155Z,13.67
2018-01-27T15:47:37.688Z,12.90
2018-01-27T15:50:05.252Z,14.90
2018-01-27T15:52:32.773Z,13.70
2018-01-27T15:55:00.371Z,13.00
2018-01-27T15:57:27.887Z,14.63
2018-01-27T15:59:55.437Z,16.13
2018-01-27T16:02:22.964Z,14.60
2018-01-27T16:04:50.532Z,15.50
2018-01-27T16:07:18.052Z,16.27
2018-01-27T16:09:45.612Z,13.23
2018-01-27T16:12:13.133Z,15.57
2018-01-27T16:14:40.688Z,16.17
2018-01-27T16:17:09.032Z,14.67
2018-01-27T16:19:36.596Z,13.77
2018-01-27T16:22:04.129Z,16.53
2018-01-27T16:24:32.467Z,16.40
2018-01-27T16:27:00.020Z,15.50
2018-01-27T16:29:27.567Z,15.10
2018-01-27T16:31:55.084Z,15.80
2018-01-27T16:34:22.644Z,16.10
2018-01-27T16:36:50.156Z,15.63
2018-01-27T16:39:17.704Z,15.00
2018-01-27T16:41:45.237Z,14.43
2018-01-27T16:44:12.804Z,14.80
2018-01-27T16:46:40.320Z,15.47
2018-01-27T16:49:07.881Z,14.63
2018-01-27T16:51:35.478Z,14.67
2018-01-27T16:54:03.816Z,14.40
2018-01-27T16:56:31.356Z,12.83
2018-01-27T16:58:59.703Z,14.03
2018-01-27T17:01:27.216Z,13.80
2018-01-27T17:03:54.767Z,15.13
2018-01-27T17:06:22.293Z,14.07
2018-01-27T17:08:49.844Z,13.60
2018-01-27T17:11:18.139Z,15.17
2018-01-27T17:13:45.672Z,14.47
2018-01-27T17:16:13.249Z,14.43
2018-01-27T17:18:40.780Z,13.10
2018-01-27T17:21:08.333Z,14.03
2018-01-27T17:23:36.649Z,12.87
2018-01-27T17:26:04.205Z,13.30
2018-01-27T17:28:31.740Z,13.30
2018-01-27T17:30:59.304Z,13.50
2018-01-27T17:33:26.829Z,15.03
2018-01-27T17:35:54.464Z,13.97
2018-01-27T17:38:21.979Z,13.70
2018-01-27T17:40:49.547Z,14.80
2018-01-27T17:43:17.069Z,12.20
2018-01-27T17:45:44.632Z,12.03
2018-01-27T17:48:12.182Z,12.17
2018-01-27T17:50:39.796Z,12.53
2018-01-27T17:53:07.285Z,12.00
2018-01-27T17:55:34.835Z,12.30
2018-01-27T17:58:02.364Z,13.30
2018-01-27T18:00:29.929Z,11.80
2018-01-27T18:02:57.450Z,11.83
2018-01-27T18:05:25.015Z,11.30
2018-01-27T18:07:52.550Z,11.10
2018-01-27T18:10:20.096Z,11.37
2018-01-27T18:12:48.407Z,10.37
2018-01-27T18:15:15.957Z,11.07
2018-01-27T18:17:43.507Z,11.10
2018-01-27T18:20:11.075Z,9.40
2018-01-27T18:22:38.600Z,10.63
2018-01-27T18:25:06.176Z,10.17
2018-01-27T18:27:33.703Z,11.87
2018-01-27T18:30:01.303Z,11.97
2018-01-27T18:32:28.828Z,11.00
2018-01-27T18:34:56.390Z,10.27
2018-01-27T18:37:23.933Z,9.60
2018-01-27T18:39:51.480Z,8.60
2018-01-27T18:42:19.764Z,7.70
2018-01-27T18:44:48.083Z,9.17
2018-01-27T18:47:15.607Z,9.57
2018-01-27T18:49:43.155Z,9.30
2018-01-27T18:52:10.668Z,8.10
2018-01-27T18:54:39.009Z,7.33
2018-01-27T18:57:06.528Z,6.97
2018-01-27T18:59:34.851Z,7.50
2018-01-27T19:02:02.362Z,6.50
2018-01-27T19:04:29.917Z,8.60
2018-01-27T19:06:57.446Z,7.00
2018-01-27T19:09:25.003Z,6.90
2018-01-27T19:11:53.285Z,7.47
2018-01-27T19:14:20.842Z,6.43
2018-01-27T19:16:48.362Z,6.40
2018-01-27T19:19:15.912Z,6.20
2018-01-27T19:21:43.423Z,7.80
2018-01-27T19:24:10.969Z,7.77
2018-01-27T19:26:39.253Z,6.53
2018-01-27T19:29:07.569Z,7.40
2018-01-27T19:31:35.098Z,7.67
2018-01-27T19:34:02.654Z,8.03
2018-01-27T19:36:30.196Z,8.10
2018-01-27T19:38:57.735Z,8.10
2018-01-27T19:41:26.045Z,8.07
2018-01-27T19:43:53.595Z,7.43
2018-01-27T19:46:21.885Z,6.77
2018-01-27T19:48:50.216Z,7.77
2018-01-27T19:51:17.733Z,8.17
2018-01-27T19:53:45.302Z,8.73
2018-01-27T19:56:12.837Z,9.30
2018-01-27T19:58:40.488Z,9.63
2018-01-27T20:01:08.045Z,8.90
2018-01-27T20:03:35.625Z,8.57
2018-01-27T20:06:03.154Z,9.77
2018-01-27T20:08:30.707Z,8.37
2018-01-27T20:10:58.228Z,8.97
2018-01-27T20:13:25.771Z,9.43
2018-01-27T20:15:53.280Z,9.10
2018-01-27T20:18:23.395Z,9.33
2018-01-27T20:20:51.684Z,8.13
2018-01-27T20:23:19.244Z,8.13
2018-01-27T20:25:46.796Z,9.00
2018-01-27T20:28:14.356Z,9.00
2018-01-27T20:30:41.887Z,8.73
2018-01-27T20:33:10.403Z,8.40
2018-01-27T20:35:37.925Z,9.00
2018-01-27T20:38:05.899Z,9.57
2018-01-27T20:40:33.427Z,9.50
2018-01-27T20:43:00.996Z,9.10
2018-01-27T20:45:28.536Z,9.03
2018-01-27T20:47:56.102Z,9.30
2018-01-27T20:50:24.411Z,7.70
2018-01-27T20:52:51.970Z,8.20
2018-01-27T20:55:19.509Z,8.93
2018-01-27T20:57:47.097Z,8.23
2018-01-27T21:00:14.628Z,8.53
2018-01-27T21:02:42.372Z,7.30
2018-01-27T21:05:09.891Z,8.97
2018-01-27T21:07:37.537Z,9.40
2018-01-27T21:10:05.832Z,9.50
2018-01-27T21:12:33.400Z,8.23
2018-01-27T21:15:01.697Z,8.47
2018-01-27T21:17:29.211Z,7.97
2018-01-27T21:19:56.760Z,8.10
2018-01-27T21:22:24.316Z,8.80
2018-01-27T21:24:51.880Z,7.10
2018-01-27T21:27:20.172Z,7.90
2018-01-27T21:29:47.733Z,8.20
2018-01-27T21:32:16.054Z,8.70
2018-01-27T21:34:43.599Z,9.77
2018-01-27T21:37:11.896Z,8.83
2018-01-27T21:39:40.320Z,9.60
2018-01-27T21:42:07.882Z,10.23
2018-01-27T21:44:35.440Z,9.93
2018-01-27T21:47:02.964Z,8.20
2018-01-27T21:49:30.510Z,9.23
2018-01-27T21:51:58.021Z,8.67
2018-01-27T21:54:25.576Z,7.33
2018-01-27T21:56:53.123Z,8.23
2018-01-27T21:59:20.670Z,7.43
2018-01-27T22:01:48.181Z,8.23
2018-01-27T22:04:15.733Z,8.20
2018-01-27T22:06:43.249Z,8.17
2018-01-27T22:09:10.805Z,8.83
2018-01-27T22:11:38.315Z,8.50
2018-01-27T22:14:05.856Z,7.67
2018-01-27T22:16:33.377Z,6.57
2018-01-27T22:19:00.921Z,7.30
2018-01-27T22:21:28.431Z,7.23
2018-01-27T22:23:55.992Z,6.80
2018-01-27T22:26:23.518Z,7.00
2018-01-27T22:28:51.061Z,6.20
2018-01-27T22:31:18.585Z,7.40
2018-01-27T22:33:46.908Z,5.83
2018-01-27T22:36:14.412Z,4.80
2018-01-27T22:38:41.966Z,5.30
2018-01-27T22:41:09.492Z,5.60
2018-01-27T22:43:37.047Z,5.27
2018-01-27T22:46:04.599Z,4.80
2018-01-27T22:48:32.143Z,5.20
2018-01-27T22:50:59.668Z,4.87
2018-01-27T22:53:27.220Z,4.70
2018-01-27T22:55:54.738Z,5.20
2018-01-27T22:58:23.068Z,5.00
2018-01-27T23:00:56.317Z,6.10
2018-01-27T23:03:24.634Z,4.80
2018-01-27T23:05:52.148Z,5.37
2018-01-27T23:08:19.699Z,5.70
2018-01-27T23:10:47.220Z,5.87
2018-01-27T23:13:14.771Z,5.33
2018-01-27T23:15:44.875Z,5.83
2018-01-27T23:18:12.419Z,5.20
2018-01-27T23:20:40.715Z,5.03
2018-01-27T23:23:08.231Z,5.47
2018-01-27T23:25:35.788Z,5.87
2018-01-27T23:28:03.311Z,5.47
2018-01-27T23:30:31.634Z,5.27
2018-01-27T23:32:59.200Z,5.93
2018-01-27T23:35:26.747Z,6.00
2018-01-27T23:37:55.040Z,5.47
2018-01-27T23:40:23.374Z,5.60
2018-01-27T23:42:50.935Z,6.17
2018-01-27T23:45:18.484Z,5.43
2018-01-27T23:47:46.065Z,6.00
2018-01-27T23:50:13.621Z,5.27
2018-01-27T23:52:41.896Z,5.63
2018-01-27T23:55:09.453Z,5.40
2018-01-27T23:57:37.030Z,5.23
